createdAt,value
2017-12-21T00:01:27.785Z,19.08
2017-12-21T00:03:56.618Z,18.55
2017-12-21T00:06:24.714Z,18.55
2017-12-21T00:08:52.773Z,17.87
2017-12-21T00:11:20.841Z,16.52
2017-12-21T00:13:48.910Z,18.90
2017-12-21T00:16:16.977Z,15.05
2017-12-21T00:18:45.047Z,15.15
2017-12-21T00:21:13.131Z,16.30
2017-12-21T00:23:41.208Z,14.80
2017-12-21T00:26:09.377Z,15.63
2017-12-21T00:28:37.448Z,14.75
2017-12-21T00:31:05.615Z,14.18
2017-12-21T00:33:33.678Z,13.02
2017-12-21T00:36:01.753Z,14.38
2017-12-21T00:38:29.824Z,14.15
2017-12-21T00:40:57.906Z,13.40
2017-12-21T00:43:25.981Z,12.70
2017-12-21T00:46:11.952Z,13.98
2017-12-21T00:48:40.035Z,13.07
2017-12-21T00:51:08.099Z,12.57
2017-12-21T00:53:36.571Z,11.65
2017-12-21T00:56:04.648Z,12.27
2017-12-21T00:58:33.063Z,12.55
2017-12-21T01:01:01.924Z,11.25
2017-12-21T01:03:30.108Z,11.02
2017-12-21T01:05:58.178Z,11.40
2017-12-21T01:08:26.262Z,11.77
2017-12-21T01:10:54.326Z,11.07
2017-12-21T01:13:22.424Z,11.55
2017-12-21T01:15:50.494Z,11.60
2017-12-21T01:18:19.336Z,11.27
2017-12-21T01:20:47.527Z,10.45
2017-12-21T01:23:15.600Z,12.25
2017-12-21T01:25:43.682Z,10.73
2017-12-21T01:28:12.534Z,11.93
2017-12-21T01:30:40.615Z,10.10
2017-12-21T01:33:09.103Z,10.50
2017-12-21T01:35:37.186Z,11.40
2017-12-21T01:38:05.339Z,11.48
2017-12-21T01:40:33.414Z,12.82
2017-12-21T01:43:01.498Z,11.10
2017-12-21T01:45:29.568Z,10.88
2017-12-21T01:47:58.435Z,11.90
2017-12-21T01:50:26.503Z,10.77
2017-12-21T01:52:54.577Z,11.05
2017-12-21T01:55:22.658Z,10.10
2017-12-21T01:57:50.734Z,10.13
2017-12-21T02:00:18.807Z,11.10
2017-12-21T02:02:46.877Z,9.30
2017-12-21T02:05:16.227Z,10.35
2017-12-21T02:07:44.292Z,8.50
2017-12-21T02:10:12.358Z,9.57
2017-12-21T02:12:40.505Z,9.82
2017-12-21T02:18:40.831Z,8.57
2017-12-21T02:21:08.916Z,9.40
2017-12-21T02:23:37.755Z,8.77
2017-12-21T02:26:05.825Z,9.77
2017-12-21T02:28:33.919Z,7.85
2017-12-21T02:31:01.992Z,8.30
2017-12-21T02:33:30.172Z,7.60
2017-12-21T02:35:58.345Z,7.87
2017-12-21T02:38:26.424Z,8.05
2017-12-21T02:40:54.492Z,8.65
2017-12-21T02:43:22.565Z,8.00
2017-12-21T02:45:50.635Z,7.18
2017-12-21T02:48:18.711Z,7.05
2017-12-21T02:50:47.581Z,6.82
2017-12-21T02:53:15.655Z,8.35
2017-12-21T02:55:43.728Z,8.32
2017-12-21T02:58:11.822Z,6.65
2017-12-21T03:00:40.658Z,8.18
2017-12-21T03:03:08.734Z,6.55
2017-12-21T03:05:36.799Z,7.05
2017-12-21T03:08:04.894Z,5.85
2017-12-21T03:10:32.957Z,6.25
2017-12-21T03:13:01.022Z,6.18
2017-12-21T03:15:29.111Z,6.37
2017-12-21T03:17:57.183Z,6.05
2017-12-21T03:20:25.264Z,6.53
2017-12-21T03:22:53.334Z,5.93
2017-12-21T03:25:22.184Z,5.68
2017-12-21T03:27:50.259Z,6.40
2017-12-21T03:30:18.335Z,5.70
2017-12-21T03:32:46.400Z,6.10
2017-12-21T03:35:14.471Z,6.03
2017-12-21T03:37:42.546Z,6.47
2017-12-21T03:40:10.990Z,5.60
2017-12-21T03:42:39.059Z,6.15
2017-12-21T03:45:07.158Z,6.50
2017-12-21T03:47:35.223Z,6.22
2017-12-21T03:50:03.301Z,6.40
2017-12-21T03:52:31.393Z,6.28
2017-12-21T03:54:59.446Z,6.50
2017-12-21T03:57:27.544Z,5.95
2017-12-21T03:59:55.617Z,7.28
2017-12-21T04:02:23.690Z,6.20
2017-12-21T04:04:52.523Z,5.95
2017-12-21T04:07:20.601Z,6.80
2017-12-21T04:09:48.675Z,7.78
2017-12-21T04:12:16.766Z,7.32
2017-12-21T04:14:44.846Z,7.00
2017-12-21T04:17:12.927Z,6.97
2017-12-21T04:19:41.000Z,7.65
2017-12-21T04:22:09.172Z,7.53
2017-12-21T04:24:37.242Z,8.73
2017-12-21T04:27:05.911Z,7.87
2017-12-21T04:29:33.997Z,8.18
2017-12-21T04:32:02.073Z,8.55
2017-12-21T04:34:30.918Z,7.82
2017-12-21T04:36:58.978Z,7.85
2017-12-21T04:39:27.057Z,8.77
2017-12-21T04:41:55.118Z,7.80
2017-12-21T04:44:23.208Z,7.47
2017-12-21T04:46:51.278Z,9.18
2017-12-21T04:49:19.354Z,8.18
2017-12-21T04:51:47.429Z,7.60
2017-12-21T04:54:15.510Z,8.85
2017-12-21T04:56:43.578Z,7.12
2017-12-21T04:59:11.646Z,7.60
2017-12-21T05:01:39.787Z,8.18
2017-12-21T05:04:07.905Z,7.20
2017-12-21T05:06:36.067Z,7.23
2017-12-21T05:09:04.164Z,7.55
2017-12-21T05:11:32.995Z,6.40
2017-12-21T05:14:01.068Z,7.17
2017-12-21T05:16:29.143Z,7.20
2017-12-21T05:18:57.220Z,6.57
2017-12-21T05:21:25.294Z,6.55
2017-12-21T05:23:54.163Z,6.62
2017-12-21T05:26:22.256Z,7.07
2017-12-21T05:28:50.331Z,6.80
2017-12-21T05:31:18.398Z,7.68
2017-12-21T05:33:46.486Z,7.30
2017-12-21T05:36:14.564Z,7.22
2017-12-21T05:38:42.640Z,7.10
2017-12-21T05:41:11.478Z,8.05
2017-12-21T05:43:39.550Z,7.70
2017-12-21T05:46:07.926Z,7.35
2017-12-21T05:48:35.996Z,7.20
2017-12-21T05:51:04.054Z,7.67
2017-12-21T05:53:32.276Z,8.38
2017-12-21T05:56:01.014Z,7.35
2017-12-21T05:58:29.097Z,7.60
2017-12-21T06:00:57.163Z,7.47
2017-12-21T06:03:25.270Z,7.97
2017-12-21T06:05:53.477Z,7.97
2017-12-21T06:08:21.554Z,7.67
2017-12-21T06:10:49.622Z,7.68
2017-12-21T06:13:18.089Z,7.20
2017-12-21T06:15:47.578Z,6.60
2017-12-21T06:18:15.667Z,7.25
2017-12-21T06:20:44.508Z,7.73
2017-12-21T06:23:12.577Z,7.03
2017-12-21T06:25:40.646Z,7.78
2017-12-21T06:28:08.828Z,7.32
2017-12-21T06:30:37.518Z,7.10
2017-12-21T06:33:05.596Z,6.93
2017-12-21T06:35:33.658Z,7.20
2017-12-21T06:38:01.866Z,6.75
2017-12-21T06:40:30.264Z,6.37
2017-12-21T06:42:58.387Z,6.43
2017-12-21T06:45:26.474Z,5.90
2017-12-21T06:47:54.544Z,6.40
2017-12-21T06:50:26.450Z,6.10
2017-12-21T06:52:54.514Z,6.20
2017-12-21T06:55:22.587Z,5.90
2017-12-21T06:57:50.711Z,7.07
2017-12-21T07:00:18.775Z,6.03
2017-12-21T07:02:46.837Z,5.27
2017-12-21T07:05:14.923Z,5.57
2017-12-21T07:07:43.081Z,5.70
2017-12-21T07:10:11.230Z,5.97
2017-12-21T07:12:39.302Z,6.30
2017-12-21T07:15:07.367Z,7.67
2017-12-21T07:17:35.434Z,5.85
2017-12-21T07:20:03.513Z,5.47
2017-12-21T07:22:31.589Z,6.80
2017-12-21T07:24:59.666Z,5.60
2017-12-21T07:27:27.761Z,6.23
2017-12-21T07:29:55.817Z,6.40
2017-12-21T07:32:23.904Z,6.00
2017-12-21T07:34:51.967Z,6.10
2017-12-21T07:37:20.040Z,5.37
2017-12-21T07:39:48.086Z,6.47
2017-12-21T07:42:16.163Z,6.30
2017-12-21T07:44:44.227Z,5.67
2017-12-21T07:47:12.285Z,6.67
2017-12-21T07:49:40.393Z,6.07
2017-12-21T07:52:08.469Z,6.53
2017-12-21T07:54:37.377Z,6.53
2017-12-21T07:57:06.212Z,7.03
2017-12-21T07:59:34.287Z,7.40
2017-12-21T08:02:02.359Z,6.78
2017-12-21T08:04:30.427Z,7.10
2017-12-21T08:06:58.546Z,7.27
2017-12-21T08:09:26.699Z,7.50
2017-12-21T08:11:54.763Z,7.00
2017-12-21T08:14:22.839Z,6.77
2017-12-21T08:16:50.898Z,7.17
2017-12-21T08:19:19.084Z,6.50
2017-12-21T08:21:47.143Z,6.07
2017-12-21T08:24:15.347Z,7.57
2017-12-21T08:26:44.205Z,5.80
2017-12-21T08:29:12.291Z,6.03
2017-12-21T08:31:41.198Z,7.30
2017-12-21T08:34:10.039Z,6.77
2017-12-21T08:36:38.108Z,7.07
2017-12-21T08:39:06.176Z,7.20
2017-12-21T08:41:34.247Z,7.00
2017-12-21T08:44:02.310Z,6.60
2017-12-21T08:46:30.382Z,7.30
2017-12-21T08:48:58.758Z,6.87
2017-12-21T08:51:26.830Z,6.97
2017-12-21T08:53:54.905Z,8.03
2017-12-21T08:56:22.980Z,8.10
2017-12-21T08:58:51.062Z,8.50
2017-12-21T09:01:19.191Z,8.13
2017-12-21T09:03:47.319Z,7.47
2017-12-21T09:06:15.490Z,6.77
2017-12-21T09:08:43.850Z,8.10
2017-12-21T09:11:11.939Z,6.70
2017-12-21T09:13:40.102Z,7.40
2017-12-21T09:16:08.207Z,6.20
2017-12-21T09:18:36.354Z,7.40
2017-12-21T09:21:04.416Z,5.57
2017-12-21T09:23:32.482Z,6.10
2017-12-21T09:26:00.577Z,6.63
2017-12-21T09:28:28.656Z,8.13
2017-12-21T09:30:56.728Z,6.90
2017-12-21T09:33:24.807Z,6.37
2017-12-21T09:35:53.622Z,6.50
2017-12-21T09:38:21.694Z,6.97
2017-12-21T09:40:49.823Z,5.80
2017-12-21T09:43:17.896Z,5.63
2017-12-21T09:45:46.331Z,5.80
2017-12-21T09:48:14.394Z,5.80
2017-12-21T09:50:42.854Z,5.83
2017-12-21T09:53:10.934Z,3.90
2017-12-21T09:55:39.012Z,6.33
2017-12-21T09:58:07.076Z,5.90
2017-12-21T10:00:35.160Z,5.07
2017-12-21T10:03:03.258Z,5.20
2017-12-21T10:05:31.431Z,5.67
2017-12-21T10:07:59.538Z,5.77
2017-12-21T10:10:28.364Z,5.90
2017-12-21T10:12:56.429Z,5.63
2017-12-21T10:15:24.501Z,5.93
2017-12-21T10:17:52.558Z,5.00
2017-12-21T10:20:20.651Z,5.90
2017-12-21T10:22:48.722Z,6.50
2017-12-21T10:25:16.797Z,6.87
2017-12-21T10:27:45.547Z,5.90
2017-12-21T10:30:14.405Z,5.73
2017-12-21T10:32:42.487Z,6.20
2017-12-21T10:35:10.550Z,6.50
2017-12-21T10:37:38.627Z,6.03
2017-12-21T10:40:06.752Z,6.57
2017-12-21T10:42:35.547Z,5.40
2017-12-21T10:45:19.573Z,5.60
2017-12-21T10:47:47.854Z,5.90
2017-12-21T10:50:15.929Z,6.27
2017-12-21T10:52:44.022Z,6.40
2017-12-21T10:55:12.126Z,6.47
2017-12-21T10:57:40.975Z,6.43
2017-12-21T11:00:09.059Z,5.93
2017-12-21T11:02:37.127Z,6.90
2017-12-21T11:05:05.198Z,7.00
2017-12-21T11:07:33.276Z,6.53
2017-12-21T11:10:04.034Z,7.00
2017-12-21T11:12:32.871Z,6.40
2017-12-21T11:15:00.944Z,6.50
2017-12-21T11:17:29.036Z,6.97
2017-12-21T11:19:57.610Z,6.20
2017-12-21T11:22:25.678Z,7.23
2017-12-21T11:24:53.761Z,7.23
2017-12-21T11:27:21.919Z,5.87
2017-12-21T11:29:50.360Z,7.47
2017-12-21T11:32:18.418Z,6.90
2017-12-21T11:34:46.496Z,8.30
2017-12-21T11:37:14.558Z,8.17
2017-12-21T11:39:42.633Z,7.73
2017-12-21T11:42:10.708Z,8.27
2017-12-21T11:44:38.780Z,7.43
2017-12-21T11:47:06.856Z,7.03
2017-12-21T11:49:34.935Z,6.57
2017-12-21T11:52:03.024Z,6.83
2017-12-21T11:54:31.106Z,7.07
2017-12-21T11:56:59.182Z,7.40
2017-12-21T11:59:27.250Z,7.57
2017-12-21T12:01:55.327Z,7.73
2017-12-21T12:04:23.463Z,8.20
2017-12-21T12:06:51.537Z,8.37
2017-12-21T12:09:19.611Z,9.50
2017-12-21T12:11:47.711Z,9.35
2017-12-21T12:14:16.022Z,9.10
2017-12-21T12:16:44.851Z,7.87
2017-12-21T12:19:13.057Z,8.60
2017-12-21T12:21:41.127Z,8.27
2017-12-21T12:24:09.204Z,8.10
2017-12-21T12:26:37.284Z,8.13
2017-12-21T12:29:07.059Z,7.57
2017-12-21T12:31:35.089Z,8.10
2017-12-21T12:34:03.216Z,7.80
2017-12-21T12:36:31.786Z,7.30
2017-12-21T12:38:59.892Z,7.70
2017-12-21T12:41:28.726Z,7.97
2017-12-21T12:43:56.794Z,8.20
2017-12-21T12:46:24.864Z,7.93
2017-12-21T12:48:52.929Z,8.10
2017-12-21T12:51:21.013Z,8.80
2017-12-21T12:53:49.074Z,8.20
2017-12-21T12:56:17.149Z,8.70
2017-12-21T12:58:45.241Z,7.57
2017-12-21T13:01:13.316Z,8.40
2017-12-21T13:03:41.384Z,8.23
2017-12-21T13:06:09.442Z,7.87
2017-12-21T13:08:37.515Z,7.40
2017-12-21T13:11:05.593Z,6.73
2017-12-21T13:13:33.676Z,8.30
2017-12-21T13:16:01.850Z,7.63
2017-12-21T13:18:29.917Z,8.43
2017-12-21T13:20:58.146Z,7.60
2017-12-21T13:23:26.427Z,7.30
2017-12-21T13:25:54.488Z,8.90
2017-12-21T13:28:23.451Z,8.57
2017-12-21T13:30:52.315Z,7.97
2017-12-21T13:33:20.391Z,8.50
2017-12-21T13:35:48.484Z,8.10
2017-12-21T13:38:17.304Z,8.40
2017-12-21T13:40:45.435Z,7.80
2017-12-21T13:43:14.284Z,8.20
2017-12-21T13:45:42.393Z,9.87
2017-12-21T13:48:10.460Z,11.00
2017-12-21T13:50:38.611Z,8.37
2017-12-21T13:53:06.683Z,8.50
2017-12-21T13:55:34.759Z,7.50
2017-12-21T13:58:02.886Z,7.57
2017-12-21T14:00:30.974Z,8.00
2017-12-21T14:02:59.044Z,8.77
2017-12-21T14:05:27.125Z,7.83
2017-12-21T14:07:55.188Z,8.77
2017-12-21T14:10:24.786Z,7.90
2017-12-21T14:12:52.857Z,7.97
2017-12-21T14:15:20.933Z,8.23
2017-12-21T14:17:49.004Z,8.40
2017-12-21T14:20:17.118Z,7.80
2017-12-21T14:22:45.186Z,8.90
2017-12-21T14:25:13.264Z,7.90
2017-12-21T14:27:42.104Z,8.50
2017-12-21T14:30:10.179Z,8.20
2017-12-21T14:32:38.822Z,7.97
2017-12-21T14:35:07.652Z,8.47
2017-12-21T14:37:35.748Z,8.00
2017-12-21T14:40:04.238Z,7.93
2017-12-21T14:42:32.311Z,9.10
2017-12-21T14:45:00.415Z,7.40
2017-12-21T14:47:28.491Z,8.83
2017-12-21T14:49:56.562Z,8.30
2017-12-21T14:52:24.634Z,6.73
2017-12-21T14:54:52.697Z,7.40
2017-12-21T14:57:20.777Z,8.10
2017-12-21T14:59:48.920Z,7.90
2017-12-21T15:02:17.796Z,6.87
2017-12-21T15:04:46.635Z,7.60
2017-12-21T15:07:14.701Z,8.57
2017-12-21T15:09:42.774Z,8.80
2017-12-21T15:12:10.876Z,8.17
2017-12-21T15:14:38.967Z,8.43
2017-12-21T15:17:07.117Z,7.73
2017-12-21T15:19:35.196Z,7.90
2017-12-21T15:22:03.272Z,7.93
2017-12-21T15:24:31.342Z,9.27
2017-12-21T15:26:59.419Z,7.87
2017-12-21T15:29:27.490Z,7.90
2017-12-21T15:31:55.587Z,6.80
2017-12-21T15:34:23.654Z,7.77
2017-12-21T15:36:52.487Z,7.97
2017-12-21T15:39:20.612Z,7.53
2017-12-21T15:41:49.459Z,9.90
2017-12-21T15:44:17.518Z,11.00
2017-12-21T15:46:46.114Z,10.60
2017-12-21T15:49:15.016Z,8.53
2017-12-21T15:51:43.087Z,8.90
2017-12-21T15:54:11.160Z,8.23
2017-12-21T15:56:39.231Z,8.80
2017-12-21T15:59:07.331Z,8.00
2017-12-21T16:01:36.172Z,8.77
2017-12-21T16:04:04.259Z,10.83
2017-12-21T16:06:32.419Z,6.80
2017-12-21T16:09:00.495Z,8.20
2017-12-21T16:11:28.558Z,8.07
2017-12-21T16:13:56.651Z,7.57
2017-12-21T16:16:24.747Z,8.17
2017-12-21T16:18:53.584Z,8.30
2017-12-21T16:21:21.664Z,8.20
2017-12-21T16:23:49.733Z,7.47
2017-12-21T16:26:17.803Z,8.87
2017-12-21T16:28:45.866Z,8.00
2017-12-21T16:31:13.918Z,6.17
2017-12-21T16:33:42.041Z,8.07
2017-12-21T16:36:10.050Z,7.27
2017-12-21T16:38:38.133Z,9.53
2017-12-21T16:41:06.198Z,9.50
2017-12-21T16:43:34.264Z,7.23
2017-12-21T16:46:02.340Z,8.63
2017-12-21T16:48:30.411Z,7.17
2017-12-21T16:50:58.466Z,6.60
2017-12-21T16:53:26.881Z,6.80
2017-12-21T16:55:54.976Z,7.90
2017-12-21T16:58:23.044Z,7.93
2017-12-21T17:00:51.121Z,7.87
2017-12-21T17:03:19.278Z,8.37
2017-12-21T17:05:48.390Z,7.47
2017-12-21T17:08:16.446Z,7.60
2017-12-21T17:10:45.470Z,6.80
2017-12-21T17:13:14.296Z,8.17
2017-12-21T17:15:42.423Z,7.27
2017-12-21T17:18:11.257Z,8.10
2017-12-21T17:20:39.344Z,8.20
2017-12-21T17:23:08.701Z,6.90
2017-12-21T17:25:37.104Z,8.60
2017-12-21T17:28:05.208Z,7.80
2017-12-21T17:30:35.444Z,8.10
2017-12-21T17:33:03.545Z,8.07
2017-12-21T17:35:31.621Z,7.70
2017-12-21T17:37:59.746Z,8.63
2017-12-21T17:40:27.811Z,8.93
2017-12-21T17:42:55.888Z,9.03
2017-12-21T17:45:23.966Z,9.67
2017-12-21T17:47:52.132Z,9.13
2017-12-21T17:50:20.604Z,8.83
2017-12-21T17:52:48.749Z,11.80
2017-12-21T17:55:17.936Z,9.60
2017-12-21T17:57:46.026Z,9.67
2017-12-21T18:00:14.155Z,10.20
2017-12-21T18:02:43.131Z,8.17
2017-12-21T18:05:11.979Z,8.60
2017-12-21T18:07:42.291Z,8.30
2017-12-21T18:10:10.379Z,9.20
2017-12-21T18:12:38.449Z,6.80
2017-12-21T18:15:07.150Z,8.00
2017-12-21T18:17:35.528Z,7.53
2017-12-21T18:20:04.380Z,7.93
2017-12-21T18:22:32.451Z,8.67
2017-12-21T18:25:00.558Z,8.30
2017-12-21T18:27:28.643Z,7.60
2017-12-21T18:29:57.488Z,8.63
2017-12-21T18:32:25.591Z,8.67
2017-12-21T18:34:53.668Z,7.35
2017-12-21T18:37:21.744Z,7.80
2017-12-21T18:39:49.828Z,7.70
2017-12-21T18:42:18.667Z,8.48
2017-12-21T18:44:46.756Z,8.10
2017-12-21T18:47:14.836Z,8.57
2017-12-21T18:49:42.924Z,8.63
2017-12-21T18:52:11.775Z,8.50
2017-12-21T18:54:39.858Z,8.40
2017-12-21T18:57:07.926Z,8.73
2017-12-21T18:59:36.014Z,7.87
2017-12-21T19:02:04.087Z,13.00
2017-12-21T19:04:32.928Z,8.25
2017-12-21T19:07:01.045Z,7.90
2017-12-21T19:09:29.885Z,8.85
2017-12-21T19:11:57.976Z,8.03
2017-12-21T19:14:26.055Z,9.20
2017-12-21T19:16:54.239Z,9.25
2017-12-21T19:19:22.303Z,8.85
2017-12-21T19:21:50.376Z,8.77
2017-12-21T19:24:18.460Z,8.52
2017-12-21T19:26:47.308Z,9.02
2017-12-21T19:29:15.386Z,8.55
2017-12-21T19:31:43.464Z,9.35
2017-12-21T19:34:11.527Z,9.68
2017-12-21T19:36:39.651Z,10.63
2017-12-21T19:39:08.510Z,9.93
2017-12-21T19:41:36.583Z,9.30
2017-12-21T19:44:04.658Z,9.85
2017-12-21T19:46:33.507Z,9.25
2017-12-21T19:49:01.826Z,9.00
2017-12-21T19:51:29.923Z,8.15
2017-12-21T19:54:01.334Z,9.45
2017-12-21T19:56:29.415Z,9.07
2017-12-21T19:58:57.478Z,8.80
2017-12-21T20:01:27.022Z,9.90
2017-12-21T20:03:55.155Z,9.70
2017-12-21T20:06:23.231Z,7.75
2017-12-21T20:08:52.081Z,8.68
2017-12-21T20:11:20.150Z,8.68
2017-12-21T20:13:48.234Z,7.87
2017-12-21T20:16:16.317Z,9.25
2017-12-21T20:18:44.386Z,7.47
2017-12-21T20:21:12.456Z,8.38
2017-12-21T20:23:40.665Z,8.32
2017-12-21T20:26:12.194Z,9.70
2017-12-21T20:28:40.330Z,8.82
2017-12-21T20:31:08.419Z,9.70
2017-12-21T20:33:36.500Z,10.98
2017-12-21T20:36:04.575Z,9.02
2017-12-21T20:38:32.647Z,10.55
2017-12-21T20:41:00.744Z,10.35
2017-12-21T20:43:28.826Z,11.43
2017-12-21T20:45:56.904Z,12.18
2017-12-21T20:48:25.957Z,9.93
2017-12-21T20:50:54.073Z,12.07
2017-12-21T20:53:22.191Z,11.23
2017-12-21T20:55:50.276Z,11.10
2017-12-21T20:58:19.131Z,12.48
2017-12-21T21:00:47.385Z,11.75
2017-12-21T21:03:15.544Z,12.43
2017-12-21T21:05:43.967Z,12.43
2017-12-21T21:08:12.052Z,11.65
2017-12-21T21:10:40.135Z,15.35
2017-12-21T21:13:08.975Z,12.43
2017-12-21T21:15:37.059Z,13.18
2017-12-21T21:18:05.336Z,13.65
2017-12-21T21:20:33.424Z,13.57
2017-12-21T21:23:01.492Z,14.18
2017-12-21T21:25:29.579Z,13.45
2017-12-21T21:27:58.423Z,13.68
2017-12-21T21:30:26.500Z,12.50
2017-12-21T21:32:54.569Z,13.48
2017-12-21T21:35:22.646Z,14.70
2017-12-21T21:37:50.740Z,16.23
2017-12-21T21:40:18.811Z,15.55
2017-12-21T21:42:46.895Z,14.23
2017-12-21T21:45:15.747Z,14.98
2017-12-21T21:47:43.820Z,15.80
2017-12-21T21:50:12.317Z,16.65
2017-12-21T21:52:40.412Z,16.60
2017-12-21T21:55:09.659Z,15.63
2017-12-21T21:57:37.742Z,17.37
2017-12-21T22:00:05.823Z,16.33
2017-12-21T22:02:33.933Z,15.48
2017-12-21T22:05:02.765Z,17.08
2017-12-21T22:07:30.863Z,18.23
2017-12-21T22:09:58.952Z,17.50
2017-12-21T22:12:27.778Z,17.55
2017-12-21T22:14:55.858Z,18.37
2017-12-21T22:17:23.941Z,18.30
2017-12-21T22:19:52.406Z,16.70
2017-12-21T22:22:20.530Z,17.83
2017-12-21T22:24:49.393Z,18.35
2017-12-21T22:27:17.483Z,19.03
2017-12-21T22:29:46.335Z,19.12
2017-12-21T22:32:14.402Z,17.80
2017-12-21T22:34:42.488Z,16.98
2017-12-21T22:37:10.567Z,18.10
2017-12-21T22:39:38.740Z,17.33
2017-12-21T22:42:06.816Z,17.08
2017-12-21T22:44:34.997Z,16.17
2017-12-21T22:47:03.106Z,17.45
2017-12-21T22:49:31.204Z,16.12
2017-12-21T22:51:59.288Z,15.93
2017-12-21T22:54:27.359Z,18.83
2017-12-21T22:56:55.504Z,16.20
2017-12-21T22:59:23.580Z,13.93
2017-12-21T23:01:51.678Z,16.27
2017-12-21T23:04:19.806Z,15.40
2017-12-21T23:06:47.918Z,15.23
2017-12-21T23:09:16.094Z,15.20
2017-12-21T23:11:44.175Z,13.65
2017-12-21T23:14:12.251Z,15.32
2017-12-21T23:16:40.404Z,15.02
2017-12-21T23:19:08.433Z,15.20
2017-12-21T23:21:36.555Z,16.00
2017-12-21T23:24:04.618Z,14.53
2017-12-21T23:26:32.692Z,17.10
2017-12-21T23:29:00.771Z,15.23
2017-12-21T23:31:28.930Z,16.23
2017-12-21T23:33:56.999Z,13.80
2017-12-21T23:36:25.084Z,13.50
2017-12-21T23:38:53.158Z,15.07
2017-12-21T23:41:21.234Z,13.57
2017-12-21T23:43:49.298Z,12.13
2017-12-21T23:46:17.396Z,14.43
2017-12-21T23:48:46.260Z,14.32
2017-12-21T23:51:14.377Z,14.50
2017-12-21T23:53:42.460Z,15.93
2017-12-21T23:56:10.587Z,15.17
2017-12-21T23:58:38.667Z,13.10
